createdAt,value
2022-09-17T00:02:56.434Z,99881.41
2022-09-17T00:06:06.572Z,99874.25
2022-09-17T00:09:10.070Z,99883.03
2022-09-17T00:12:12.679Z,99882.59
2022-09-17T00:15:15.933Z,99892.00
2022-09-17T00:18:18.829Z,99893.16
2022-09-17T00:21:24.010Z,99904.50
2022-09-17T00:24:26.770Z,99903.09
2022-09-17T00:27:29.334Z,99914.09
2022-09-17T00:30:32.096Z,99909.13
2022-09-17T00:33:34.686Z,99909.63
2022-09-17T00:36:40.448Z,99912.31
2022-09-17T00:39:45.106Z,99920.94
2022-09-17T00:42:47.855Z,99923.97
2022-09-17T00:45:53.384Z,99931.34
2022-09-17T00:48:58.375Z,99929.41
2022-09-17T00:52:07.177Z,99926.72
2022-09-17T00:55:15.266Z,99946.03
2022-09-17T00:58:22.749Z,99943.28
2022-09-17T01:01:26.030Z,99950.38
2022-09-17T01:04:29.191Z,99942.41
2022-09-17T01:07:49.374Z,99952.78
2022-09-17T01:11:13.894Z,99945.31
2022-09-17T01:14:31.017Z,99951.94
2022-09-17T01:17:48.893Z,99939.88
2022-09-17T01:21:29.985Z,99944.28
2022-09-17T01:24:48.521Z,99953.81
2022-09-17T01:28:10.308Z,99947.53
2022-09-17T01:31:36.145Z,99959.00
2022-09-17T01:34:47.047Z,99952.63
2022-09-17T01:38:00.867Z,99955.88
2022-09-17T01:41:07.859Z,99962.41
2022-09-17T01:44:16.312Z,99962.13
2022-09-17T01:47:24.450Z,99970.13
2022-09-17T01:50:31.412Z,99965.03
2022-09-17T01:53:40.925Z,99968.34
2022-09-17T01:56:49.623Z,99961.22
2022-09-17T01:59:56.419Z,99965.91
2022-09-17T02:03:03.398Z,99977.59
2022-09-17T02:06:12.144Z,99976.22
2022-09-17T02:09:18.981Z,99972.31
2022-09-17T02:12:29.350Z,99963.19
2022-09-17T02:15:36.178Z,99969.50
2022-09-17T02:18:46.128Z,99963.72
2022-09-17T02:21:58.542Z,99966.41
2022-09-17T02:25:05.812Z,99968.69
2022-09-17T02:28:16.056Z,99971.97
2022-09-17T02:31:19.383Z,99973.91
2022-09-17T02:34:27.539Z,99970.75
2022-09-17T02:37:30.236Z,99976.88
2022-09-17T02:40:38.856Z,99969.50
2022-09-17T02:43:52.625Z,99972.91
2022-09-17T02:47:13.137Z,99973.75
2022-09-17T02:50:42.866Z,99964.81
2022-09-17T02:53:56.769Z,99967.56
2022-09-17T02:57:13.681Z,99970.31
2022-09-17T03:00:18.564Z,99968.16
2022-09-17T03:03:24.973Z,99966.28
2022-09-17T03:06:28.961Z,99965.22
2022-09-17T03:09:31.697Z,99962.22
2022-09-17T03:12:34.489Z,99969.03
2022-09-17T03:15:37.160Z,99972.53
2022-09-17T03:18:39.865Z,99955.22
2022-09-17T03:21:43.786Z,99957.97
2022-09-17T03:24:46.565Z,99968.94
2022-09-17T03:27:49.321Z,99963.13
2022-09-17T03:30:51.921Z,99975.59
2022-09-17T03:33:54.492Z,99968.03
2022-09-17T03:36:58.455Z,99974.66
2022-09-17T03:40:01.481Z,99988.53
2022-09-17T03:43:04.800Z,99973.91
2022-09-17T03:46:07.719Z,99969.84
2022-09-17T03:49:10.573Z,99973.34
2022-09-17T03:52:14.659Z,99978.06
2022-09-17T03:55:17.591Z,99977.75
2022-09-17T03:58:20.357Z,99966.88
2022-09-17T04:01:23.042Z,99974.47
2022-09-17T04:04:26.228Z,99978.03
2022-09-17T04:07:30.177Z,99982.44
2022-09-17T04:10:32.815Z,99980.50
2022-09-17T04:13:35.575Z,99979.94
2022-09-17T04:16:38.177Z,99983.41
2022-09-17T04:19:40.747Z,99981.59
2022-09-17T04:22:46.775Z,99986.78
2022-09-17T04:25:49.788Z,99983.31
2022-09-17T04:28:52.491Z,99982.75
2022-09-17T04:31:55.182Z,99994.13
2022-09-17T04:34:58.029Z,99996.28
2022-09-17T04:38:02.075Z,99992.94
2022-09-17T04:41:07.352Z,99991.44
2022-09-17T04:44:10.385Z,99995.09
2022-09-17T04:47:12.999Z,99991.56
2022-09-17T04:50:15.919Z,99998.19
2022-09-17T04:53:20.365Z,99998.47
2022-09-17T04:56:22.991Z,99995.66
2022-09-17T04:59:25.869Z,99996.19
2022-09-17T05:02:28.571Z,99994.06
2022-09-17T05:05:31.317Z,99993.41
2022-09-17T05:08:35.300Z,100002.69
2022-09-17T05:11:38.015Z,100007.44
2022-09-17T05:14:40.718Z,100003.34
2022-09-17T05:17:43.367Z,100002.72
2022-09-17T05:20:46.122Z,100010.13
2022-09-17T05:23:50.580Z,100005.44
2022-09-17T05:26:53.211Z,100012.13
2022-09-17T05:29:55.923Z,100011.28
2022-09-17T05:33:03.077Z,100016.94
2022-09-17T05:36:06.000Z,100022.81
2022-09-17T05:39:10.677Z,100025.13
2022-09-17T05:42:13.286Z,100023.03
2022-09-17T05:45:16.113Z,100017.31
2022-09-17T05:48:18.691Z,100022.53
2022-09-17T05:51:21.579Z,100026.69
2022-09-17T05:54:25.595Z,100028.16
2022-09-17T05:57:30.410Z,100036.53
2022-09-17T06:00:33.140Z,100035.78
2022-09-17T06:03:35.764Z,100035.50
2022-09-17T06:06:39.230Z,100039.50
2022-09-17T06:09:43.215Z,100031.47
2022-09-17T06:12:45.875Z,100040.19
2022-09-17T06:15:51.916Z,100051.13
2022-09-17T06:18:54.935Z,100048.88
2022-09-17T06:21:57.579Z,100049.16
2022-09-17T06:25:02.499Z,100045.97
2022-09-17T06:28:05.826Z,100058.66
2022-09-17T06:31:10.519Z,100054.34
2022-09-17T06:34:13.793Z,100058.56
2022-09-17T06:37:16.836Z,100061.00
2022-09-17T06:40:23.316Z,100063.25
2022-09-17T06:43:27.326Z,100060.28
2022-09-17T06:46:30.143Z,100062.09
2022-09-17T06:49:32.812Z,100061.69
2022-09-17T06:52:35.551Z,100063.44
2022-09-17T06:55:39.673Z,100059.47
2022-09-17T06:58:43.725Z,100056.56
2022-09-17T07:01:47.491Z,100069.09
2022-09-17T07:04:50.172Z,100073.06
2022-09-17T07:07:53.277Z,100077.59
2022-09-17T07:10:58.161Z,100076.41
2022-09-17T07:14:00.822Z,100072.47
2022-09-17T07:17:03.766Z,100078.81
2022-09-17T07:20:07.244Z,100077.13
2022-09-17T07:23:09.927Z,100080.22
2022-09-17T07:26:16.418Z,100089.13
2022-09-17T07:29:21.777Z,100086.06
2022-09-17T07:32:25.301Z,100086.50
2022-09-17T07:35:27.893Z,100079.53
2022-09-17T07:38:32.083Z,100079.53
2022-09-17T07:41:36.414Z,100082.88
2022-09-17T07:44:39.107Z,100079.81
2022-09-17T07:47:42.455Z,100085.47
2022-09-17T07:50:45.297Z,100084.34
2022-09-17T07:53:50.170Z,100077.91
2022-09-17T07:56:54.114Z,100082.47
2022-09-17T07:59:56.679Z,100090.59
2022-09-17T08:02:59.806Z,100088.88
2022-09-17T08:06:07.054Z,100093.63
2022-09-17T08:09:10.795Z,100093.03
2022-09-17T08:12:14.902Z,100094.75
2022-09-17T08:15:18.037Z,100087.41
2022-09-17T08:18:20.652Z,100083.47
2022-09-17T08:21:23.594Z,100081.25
2022-09-17T08:24:26.741Z,100085.34
2022-09-17T08:27:31.189Z,100089.75
2022-09-17T08:30:33.904Z,100085.59
2022-09-17T08:33:38.090Z,100085.28
2022-09-17T08:36:40.851Z,100085.31
2022-09-17T08:39:43.573Z,100088.38
2022-09-17T08:42:55.095Z,100093.66
2022-09-17T08:45:59.552Z,100078.28
2022-09-17T08:49:09.260Z,100093.75
2022-09-17T08:52:47.888Z,100085.81
2022-09-17T08:55:57.852Z,100077.97
2022-09-17T08:59:21.797Z,100083.28
2022-09-17T09:02:34.167Z,100074.97
2022-09-17T09:05:43.860Z,100088.47
2022-09-17T09:08:51.633Z,100088.25
2022-09-17T09:12:05.788Z,100082.53
2022-09-17T09:15:22.842Z,100091.56
2022-09-17T09:18:30.175Z,100089.72
2022-09-17T09:21:45.037Z,100093.00
2022-09-17T09:25:00.897Z,100098.00
2022-09-17T09:28:18.832Z,100102.00
2022-09-17T09:31:43.592Z,100112.88
2022-09-17T09:34:49.213Z,100094.53
2022-09-17T09:37:57.797Z,100111.94
2022-09-17T09:41:08.209Z,100117.91
2022-09-17T09:44:13.528Z,100112.34
2022-09-17T09:47:34.246Z,100125.88
2022-09-17T09:51:05.691Z,100123.69
2022-09-17T09:54:25.018Z,100115.97
2022-09-17T09:57:38.938Z,100121.50
2022-09-17T10:00:43.691Z,100127.53
2022-09-17T10:03:48.937Z,100125.78
2022-09-17T10:06:54.757Z,100121.06
2022-09-17T10:10:09.863Z,100110.97
2022-09-17T10:13:14.875Z,100118.31
2022-09-17T10:16:19.813Z,100125.78
2022-09-17T10:19:25.643Z,100152.53
2022-09-17T10:22:32.762Z,100159.03
2022-09-17T10:25:36.244Z,100156.97
2022-09-17T10:28:47.898Z,100157.06
2022-09-17T10:31:51.999Z,100156.94
2022-09-17T10:35:07.597Z,100145.47
2022-09-17T10:38:28.997Z,100141.16
2022-09-17T10:41:31.828Z,100136.56
2022-09-17T10:44:36.703Z,100141.50
2022-09-17T10:47:43.981Z,100135.31
2022-09-17T10:50:51.414Z,100143.69
2022-09-17T10:54:30.928Z,100133.41
2022-09-17T10:57:48.962Z,100141.97
2022-09-17T11:01:07.824Z,100136.94
2022-09-17T11:04:30.780Z,100131.84
2022-09-17T11:07:49.026Z,100142.97
2022-09-17T11:10:59.421Z,100141.97
2022-09-17T11:14:12.538Z,100145.06
2022-09-17T11:17:36.816Z,100137.00
2022-09-17T11:20:58.510Z,100135.66
2022-09-17T11:24:36.076Z,100162.81
2022-09-17T11:27:50.943Z,100171.75
2022-09-17T11:31:02.708Z,100166.84
2022-09-17T11:34:24.838Z,100157.69
2022-09-17T11:37:32.596Z,100159.88
2022-09-17T11:40:41.414Z,100146.78
2022-09-17T11:43:50.276Z,100143.28
2022-09-17T11:46:57.688Z,100139.44
2022-09-17T11:50:10.448Z,100131.38
2022-09-17T11:53:23.730Z,100125.09
2022-09-17T11:56:32.315Z,100127.84
2022-09-17T11:59:38.679Z,100137.72
2022-09-17T12:02:50.141Z,100131.91
2022-09-17T12:05:57.299Z,100119.53
2022-09-17T12:09:04.632Z,100124.91
2022-09-17T12:12:31.831Z,100125.88
2022-09-17T12:15:41.668Z,100126.16
2022-09-17T12:18:58.074Z,100122.69
2022-09-17T12:22:05.686Z,100117.59
2022-09-17T12:25:13.945Z,100121.75
2022-09-17T12:28:26.862Z,100118.94
2022-09-17T12:31:38.948Z,100107.75
2022-09-17T12:34:53.984Z,100121.63
2022-09-17T12:38:13.154Z,100108.09
2022-09-17T12:41:21.597Z,100095.69
2022-09-17T12:44:44.101Z,100093.38
2022-09-17T12:48:23.854Z,100087.44
2022-09-17T12:51:47.345Z,100091.47
2022-09-17T12:55:16.697Z,100086.72
2022-09-17T12:58:35.292Z,100089.63
2022-09-17T13:01:47.780Z,100100.56
2022-09-17T13:05:38.017Z,100096.75
2022-09-17T13:09:28.246Z,100093.03
2022-09-17T13:12:37.088Z,100088.06
2022-09-17T13:15:48.002Z,100086.97
2022-09-17T13:19:15.584Z,100085.06
2022-09-17T13:22:21.631Z,100091.41
2022-09-17T13:25:26.178Z,100095.22
2022-09-17T13:28:40.310Z,100084.50
2022-09-17T13:31:49.093Z,100092.78
2022-09-17T13:34:53.214Z,100086.63
2022-09-17T13:37:59.064Z,100084.38
2022-09-17T13:41:21.790Z,100088.50
2022-09-17T13:44:24.993Z,100089.81
2022-09-17T13:47:30.561Z,100093.41
2022-09-17T13:50:36.799Z,100090.97
2022-09-17T13:53:39.583Z,100092.34
2022-09-17T13:56:46.228Z,100093.78
2022-09-17T13:59:57.577Z,100085.72
2022-09-17T14:03:44.453Z,100083.63
2022-09-17T14:06:53.561Z,100084.16
2022-09-17T14:09:58.316Z,100083.16
2022-09-17T14:13:25.134Z,100088.22
2022-09-17T14:16:37.373Z,100102.44
2022-09-17T14:19:51.584Z,100104.38
2022-09-17T14:23:02.230Z,100115.09
2022-09-17T14:26:11.169Z,100117.28
2022-09-17T14:29:29.494Z,100124.25
2022-09-17T14:32:39.404Z,100134.19
2022-09-17T14:35:45.072Z,100133.75
2022-09-17T14:38:53.064Z,100128.53
2022-09-17T14:41:56.215Z,100123.72
2022-09-17T14:45:01.583Z,100123.72
2022-09-17T14:48:30.310Z,100118.50
2022-09-17T14:51:33.065Z,100108.16
2022-09-17T14:54:37.288Z,100111.75
2022-09-17T14:57:43.950Z,100105.78
2022-09-17T15:00:54.065Z,100105.09
2022-09-17T15:04:11.627Z,100103.25
2022-09-17T15:07:14.928Z,100110.19
2022-09-17T15:10:21.164Z,100112.44
2022-09-17T15:13:29.127Z,100111.75
2022-09-17T15:16:33.314Z,100107.19
2022-09-17T15:19:39.468Z,100103.00
2022-09-17T15:22:45.507Z,100116.09
2022-09-17T15:25:57.187Z,100115.50
2022-09-17T15:29:01.257Z,100113.16
2022-09-17T15:32:06.769Z,100103.34
2022-09-17T15:35:23.210Z,100106.06
2022-09-17T15:38:29.399Z,100101.91
2022-09-17T15:41:34.717Z,100113.38
2022-09-17T15:44:37.554Z,100108.03
2022-09-17T15:47:55.179Z,100103.03
2022-09-17T15:50:59.893Z,100110.22
2022-09-17T15:54:08.668Z,100114.19
2022-09-17T15:57:16.985Z,100103.41
2022-09-17T16:00:20.466Z,100101.78
2022-09-17T16:04:03.180Z,100106.22
2022-09-17T16:07:39.146Z,100107.44
2022-09-17T16:10:42.234Z,100100.16
2022-09-17T16:13:47.011Z,100110.13
2022-09-17T16:16:50.069Z,100107.44
2022-09-17T16:19:52.881Z,100105.81
2022-09-17T16:22:57.453Z,100111.25
2022-09-17T16:26:00.152Z,100112.88
2022-09-17T16:29:08.142Z,100116.91
2022-09-17T16:32:12.069Z,100113.19
2022-09-17T16:35:17.470Z,100124.78
2022-09-17T16:38:20.600Z,100116.31
2022-09-17T16:41:23.322Z,100122.94
2022-09-17T16:44:27.420Z,100116.31
2022-09-17T16:47:31.535Z,100123.91
2022-09-17T16:50:35.875Z,100117.28
2022-09-17T16:53:39.316Z,100124.72
2022-09-17T16:56:42.306Z,100114.47
2022-09-17T16:59:46.694Z,100122.63
2022-09-17T17:02:54.113Z,100114.91
2022-09-17T17:05:57.024Z,100114.22
2022-09-17T17:09:01.126Z,100120.81
2022-09-17T17:12:04.214Z,100118.47
2022-09-17T17:15:11.137Z,100112.34
2022-09-17T17:18:13.799Z,100119.47
2022-09-17T17:21:16.566Z,100116.19
2022-09-17T17:24:19.489Z,100108.84
2022-09-17T17:27:22.233Z,100115.16
2022-09-17T17:30:26.169Z,100102.81
2022-09-17T17:33:28.972Z,100107.38
2022-09-17T17:36:32.303Z,100110.13
2022-09-17T17:39:35.166Z,100107.06
2022-09-17T17:42:47.214Z,100107.56
2022-09-17T17:45:51.174Z,100111.13
2022-09-17T17:48:53.921Z,100119.94
2022-09-17T17:51:56.663Z,100110.59
2022-09-17T17:54:59.281Z,100123.53
2022-09-17T17:58:01.979Z,100123.53
2022-09-17T18:01:12.503Z,100119.91
2022-09-17T18:04:15.260Z,100121.88
2022-09-17T18:07:17.899Z,100118.63
2022-09-17T18:10:21.058Z,100124.56
2022-09-17T18:13:23.950Z,100126.75
2022-09-17T18:16:29.123Z,100125.56
2022-09-17T18:19:31.788Z,100130.00
2022-09-17T18:22:34.495Z,100131.63
2022-09-17T18:25:37.133Z,100132.44
2022-09-17T18:28:39.860Z,100125.81
2022-09-17T18:31:45.111Z,100126.16
2022-09-17T18:34:47.810Z,100126.94
2022-09-17T18:37:50.542Z,100133.03
2022-09-17T18:40:53.614Z,100135.25
2022-09-17T18:43:56.727Z,100128.31
2022-09-17T18:47:00.691Z,100142.94
2022-09-17T18:50:03.578Z,100133.53
2022-09-17T18:53:06.494Z,100145.44
2022-09-17T18:56:16.782Z,100143.75
2022-09-17T18:59:19.371Z,100137.16
2022-09-17T19:02:23.549Z,100135.50
2022-09-17T19:05:26.843Z,100135.56
2022-09-17T19:08:29.786Z,100132.84
2022-09-17T19:11:32.387Z,100136.16
2022-09-17T19:14:34.999Z,100143.03
2022-09-17T19:17:38.946Z,100143.53
2022-09-17T19:20:41.881Z,100142.44
2022-09-17T19:23:46.631Z,100136.38
2022-09-17T19:26:51.099Z,100136.97
2022-09-17T19:29:55.121Z,100142.72
2022-09-17T19:32:59.737Z,100146.84
2022-09-17T19:36:03.156Z,100139.19
2022-09-17T19:39:06.134Z,100136.38
2022-09-17T19:42:08.806Z,100140.78
2022-09-17T19:45:11.848Z,100141.91
2022-09-17T19:48:21.013Z,100142.16
2022-09-17T19:51:29.726Z,100148.47
2022-09-17T19:54:32.351Z,100139.13
2022-09-17T19:57:34.991Z,100148.78
2022-09-17T20:00:37.600Z,100140.25
2022-09-17T20:03:42.859Z,100136.38
2022-09-17T20:06:45.768Z,100151.22
2022-09-17T20:09:48.440Z,100141.84
2022-09-17T20:12:51.260Z,100139.09
2022-09-17T20:15:54.004Z,100139.13
2022-09-17T20:18:58.149Z,100141.06
2022-09-17T20:22:01.015Z,100138.03
2022-09-17T20:25:03.869Z,100136.13
2022-09-17T20:28:06.416Z,100132.00
2022-09-17T20:31:12.349Z,100131.47
2022-09-17T20:34:16.373Z,100130.06
2022-09-17T20:37:44.411Z,100127.59
2022-09-17T20:40:41.662Z,100122.31
2022-09-17T20:43:46.233Z,100122.03
2022-09-17T20:46:49.216Z,100133.84
2022-09-17T20:49:55.431Z,100136.59
2022-09-17T20:52:58.777Z,100133.59
2022-09-17T20:56:03.431Z,100120.66
2022-09-17T20:59:14.490Z,100116.50
2022-09-17T21:02:18.871Z,100121.75
2022-09-17T21:05:22.990Z,100125.63
2022-09-17T21:08:25.603Z,100127.19
2022-09-17T21:11:29.379Z,100131.34
2022-09-17T21:14:32.777Z,100132.00
2022-09-17T21:17:36.487Z,100122.59
2022-09-17T21:20:40.471Z,100124.84
2022-09-17T21:23:44.364Z,100132.28
2022-09-17T21:26:47.467Z,100123.25
2022-09-17T21:29:50.168Z,100129.28
2022-09-17T21:32:53.350Z,100135.31
2022-09-17T21:35:57.403Z,100141.34
2022-09-17T21:39:01.928Z,100132.84
2022-09-17T21:42:04.966Z,100138.38
2022-09-17T21:45:08.086Z,100132.88
2022-09-17T21:48:10.931Z,100143.59
2022-09-17T21:51:17.319Z,100138.66
2022-09-17T21:54:20.143Z,100140.56
2022-09-17T21:57:22.806Z,100141.41
2022-09-17T22:00:27.300Z,100146.09
2022-09-17T22:03:30.133Z,100138.66
2022-09-17T22:06:35.157Z,100144.41
2022-09-17T22:09:38.052Z,100138.09
2022-09-17T22:12:40.829Z,100144.91
2022-09-17T22:15:43.678Z,100147.94
2022-09-17T22:18:48.564Z,100133.09
2022-09-17T22:21:56.286Z,100134.78
2022-09-17T22:24:59.066Z,100133.97
2022-09-17T22:28:19.993Z,100136.69
2022-09-17T22:31:24.151Z,100134.50
2022-09-17T22:34:27.086Z,100131.72
2022-09-17T22:37:31.043Z,100127.06
2022-09-17T22:40:33.723Z,100132.03
2022-09-17T22:43:36.629Z,100129.00
2022-09-17T22:46:40.848Z,100124.31
2022-09-17T22:49:43.490Z,100132.28
2022-09-17T22:52:49.504Z,100133.63
2022-09-17T22:55:56.041Z,100132.00
2022-09-17T22:58:59.587Z,100126.44
2022-09-17T23:02:02.289Z,100126.81
2022-09-17T23:05:05.755Z,100130.06
2022-09-17T23:08:09.710Z,100123.72
2022-09-17T23:11:18.290Z,100124.78
2022-09-17T23:14:20.916Z,100125.91
2022-09-17T23:17:27.290Z,100118.22
2022-09-17T23:20:32.566Z,100123.44
2022-09-17T23:23:38.260Z,100124.56
2022-09-17T23:26:41.202Z,100130.31
2022-09-17T23:29:43.767Z,100126.78
2022-09-17T23:32:46.490Z,100119.06
2022-09-17T23:35:49.103Z,100126.50
2022-09-17T23:38:53.576Z,100134.47
2022-09-17T23:41:57.778Z,100126.75
2022-09-17T23:45:00.419Z,100132.81
2022-09-17T23:48:03.333Z,100129.47
2022-09-17T23:51:06.638Z,100127.25
2022-09-17T23:54:10.989Z,100132.53
2022-09-17T23:57:13.739Z,100133.41
